createdAt,value
2019-02-27T18:49:34.143Z,82.80
2019-02-27T18:54:40.514Z,82.80
2019-02-27T18:59:46.784Z,84.10
2019-02-27T19:04:53.079Z,82.30
2019-02-27T19:10:03.744Z,84.00
2019-02-27T19:15:13.685Z,84.80
2019-02-27T19:20:24.740Z,83.20
2019-02-27T19:25:34.078Z,83.50
2019-02-27T19:30:41.860Z,82.40
2019-02-27T19:35:50.270Z,83.70
2019-02-27T19:40:56.610Z,84.10
2019-02-27T19:46:02.921Z,84.30
2019-02-27T19:51:10.807Z,84.30
2019-02-27T19:56:17.227Z,85.20
2019-02-27T20:01:23.864Z,85.00
2019-02-27T20:06:30.240Z,85.90
2019-02-27T20:11:40.236Z,85.40
2019-02-27T20:16:57.365Z,87.30
2019-02-27T20:22:03.742Z,87.00
2019-02-27T20:27:10.353Z,88.70
2019-02-27T20:32:16.833Z,88.50
2019-02-27T20:37:23.368Z,88.40
2019-02-27T20:42:30.080Z,87.70
2019-02-27T20:47:37.730Z,88.40
2019-02-27T20:52:46.431Z,88.40
2019-02-27T20:57:52.276Z,88.60
2019-02-27T21:03:00.652Z,89.30
2019-02-27T21:08:06.683Z,90.40
2019-02-27T21:13:15.976Z,90.70
2019-02-27T21:18:21.211Z,90.80
2019-02-27T21:23:27.567Z,90.80
2019-02-27T21:28:35.722Z,90.00
2019-02-27T21:33:42.517Z,91.00
2019-02-27T21:38:51.390Z,90.80
2019-02-27T21:43:57.772Z,90.90
2019-02-27T21:49:04.257Z,90.90
2019-02-27T21:54:11.636Z,91.10
2019-02-27T21:59:17.913Z,90.80
2019-02-27T22:04:24.156Z,91.20
2019-02-27T22:09:30.640Z,92.10
2019-02-27T22:14:37.982Z,91.40
2019-02-27T22:19:44.243Z,91.80
2019-02-27T22:24:55.537Z,91.80
2019-02-27T22:30:02.135Z,92.00
2019-02-27T22:35:08.702Z,92.90
2019-02-27T22:40:26.573Z,93.50
2019-02-27T22:45:38.148Z,93.40
2019-02-27T22:50:41.816Z,93.60
2019-02-27T22:55:48.405Z,94.00
2019-02-27T23:01:08.475Z,93.80
2019-02-27T23:06:15.526Z,93.80
2019-02-27T23:11:21.731Z,94.10
2019-02-27T23:16:29.746Z,94.60
2019-02-27T23:21:36.035Z,95.00
2019-02-27T23:26:42.332Z,95.50
2019-02-27T23:31:48.776Z,95.10
2019-02-27T23:36:55.853Z,95.10
2019-02-27T23:42:02.999Z,95.60
2019-02-27T23:47:09.333Z,95.60
2019-02-27T23:52:16.076Z,95.30
2019-02-27T23:57:23.661Z,95.50
